createdAt,value
2023-04-18T00:00:52.720Z,28.36
2023-04-18T00:01:52.859Z,28.37
2023-04-18T00:02:52.954Z,28.35
2023-04-18T00:03:53.144Z,28.35
2023-04-18T00:04:52.948Z,28.37
2023-04-18T00:05:52.919Z,28.36
2023-04-18T00:06:52.949Z,28.36
2023-04-18T00:07:53.026Z,28.36
2023-04-18T00:08:53.047Z,28.36
2023-04-18T00:09:53.017Z,28.37
2023-04-18T00:10:53.026Z,28.36
2023-04-18T00:11:53.047Z,28.34
2023-04-18T00:12:53.084Z,28.39
2023-04-18T00:13:53.031Z,28.38
2023-04-18T00:14:53.040Z,28.36
2023-04-18T00:15:53.036Z,28.37
2023-04-18T00:16:53.083Z,28.37
2023-04-18T00:17:53.132Z,28.39
2023-04-18T00:18:53.046Z,28.36
2023-04-18T00:19:53.044Z,28.35
2023-04-18T00:20:53.045Z,28.38
2023-04-18T00:21:53.051Z,28.40
2023-04-18T00:22:53.046Z,28.38
2023-04-18T00:23:53.049Z,28.39
2023-04-18T00:24:53.093Z,28.38
2023-04-18T00:25:53.131Z,28.38
2023-04-18T00:26:53.203Z,28.40
2023-04-18T00:27:53.224Z,28.40
2023-04-18T00:28:53.260Z,28.38
2023-04-18T00:29:53.307Z,28.38
2023-04-18T00:30:53.363Z,28.37
2023-04-18T00:31:53.379Z,28.38
2023-04-18T00:32:53.452Z,28.38
2023-04-18T00:33:53.484Z,28.38
2023-04-18T00:34:53.509Z,28.36
2023-04-18T00:35:53.547Z,28.38
2023-04-18T00:36:53.599Z,28.38
2023-04-18T00:37:53.634Z,28.39
2023-04-18T00:38:53.690Z,28.40
2023-04-18T00:39:53.726Z,28.39
2023-04-18T00:40:53.806Z,28.39
2023-04-18T00:41:53.818Z,28.38
2023-04-18T00:42:53.850Z,28.39
2023-04-18T00:43:54.100Z,28.40
2023-04-18T00:44:53.986Z,28.41
2023-04-18T00:45:54.067Z,28.39
2023-04-18T00:46:54.049Z,28.39
2023-04-18T00:47:54.124Z,28.39
2023-04-18T00:48:54.148Z,28.40
2023-04-18T00:49:54.189Z,28.40
2023-04-18T00:50:54.220Z,28.40
2023-04-18T00:51:54.400Z,28.42
2023-04-18T00:52:54.341Z,28.42
2023-04-18T00:53:54.364Z,28.41
2023-04-18T00:54:54.405Z,28.41
2023-04-18T00:55:54.452Z,28.41
2023-04-18T00:56:54.567Z,28.41
2023-04-18T00:57:54.555Z,28.41
2023-04-18T00:58:54.609Z,28.42
2023-04-18T00:59:54.632Z,28.42
2023-04-18T01:00:54.722Z,28.42
2023-04-18T01:01:54.966Z,28.41
2023-04-18T01:02:54.852Z,28.39
2023-04-18T01:03:55.034Z,28.39
2023-04-18T01:04:54.899Z,28.41
2023-04-18T01:05:54.913Z,28.39
2023-04-18T01:06:54.932Z,28.42
2023-04-18T01:07:54.980Z,28.41
2023-04-18T01:08:55.031Z,28.40
2023-04-18T01:09:55.078Z,28.40
2023-04-18T01:10:55.117Z,28.41
2023-04-18T01:11:55.148Z,28.42
2023-04-18T01:12:55.195Z,28.39
2023-04-18T01:13:55.251Z,28.42
2023-04-18T01:14:55.293Z,28.43
2023-04-18T01:15:55.375Z,28.41
2023-04-18T01:16:55.376Z,28.42
2023-04-18T01:17:55.468Z,28.42
2023-04-18T01:18:55.475Z,28.44
2023-04-18T01:19:55.537Z,28.42
2023-04-18T01:20:55.573Z,28.41
2023-04-18T01:21:55.588Z,28.42
2023-04-18T01:22:55.585Z,28.42
2023-04-18T01:23:55.647Z,28.40
2023-04-18T01:24:55.584Z,28.41
2023-04-18T01:25:55.610Z,28.40
2023-04-18T01:26:55.621Z,28.41
2023-04-18T01:27:55.617Z,28.42
2023-04-18T01:28:55.613Z,28.42
2023-04-18T01:29:55.626Z,28.42
2023-04-18T01:30:55.643Z,28.43
2023-04-18T01:31:55.622Z,28.44
2023-04-18T01:32:55.673Z,28.43
2023-04-18T01:33:55.630Z,28.44
2023-04-18T01:34:55.644Z,28.46
2023-04-18T01:35:55.652Z,28.45
2023-04-18T01:36:55.681Z,28.43
2023-04-18T01:37:55.731Z,28.41
2023-04-18T01:38:55.791Z,28.44
2023-04-18T01:39:55.825Z,28.45
2023-04-18T01:40:55.884Z,28.45
2023-04-18T01:41:55.929Z,28.45
2023-04-18T01:42:55.980Z,28.47
2023-04-18T01:43:56.018Z,28.46
2023-04-18T01:44:56.053Z,28.45
2023-04-18T01:45:56.128Z,28.45
2023-04-18T01:46:56.261Z,28.45
2023-04-18T01:47:56.292Z,28.42
2023-04-18T01:48:56.263Z,28.44
2023-04-18T01:49:56.303Z,28.44
2023-04-18T01:50:56.356Z,28.46
2023-04-18T01:51:56.400Z,28.44
2023-04-18T01:52:56.443Z,28.44
2023-04-18T01:53:56.488Z,28.42
2023-04-18T01:54:56.532Z,28.44
2023-04-18T01:55:56.586Z,28.44
2023-04-18T01:56:56.618Z,28.45
2023-04-18T01:57:56.669Z,28.46
2023-04-18T01:58:56.700Z,28.46
2023-04-18T01:59:56.779Z,28.43
2023-04-18T02:00:56.829Z,28.45
2023-04-18T02:01:56.893Z,28.46
2023-04-18T02:02:56.929Z,28.45
2023-04-18T02:03:56.913Z,28.44
2023-04-18T02:04:56.802Z,28.46
2023-04-18T02:05:56.815Z,28.48
2023-04-18T02:06:56.829Z,28.49
2023-04-18T02:07:56.805Z,28.47
2023-04-18T02:08:56.823Z,28.46
2023-04-18T02:09:56.814Z,28.45
2023-04-18T02:10:56.838Z,28.48
2023-04-18T02:11:56.826Z,28.49
2023-04-18T02:12:56.820Z,28.45
2023-04-18T02:13:56.822Z,28.47
2023-04-18T02:14:56.824Z,28.44
2023-04-18T02:15:56.930Z,28.46
2023-04-18T02:16:56.889Z,28.46
2023-04-18T02:17:56.891Z,28.45
2023-04-18T02:18:56.838Z,28.48
2023-04-18T02:19:56.872Z,28.47
2023-04-18T02:20:56.918Z,28.46
2023-04-18T02:21:56.969Z,28.47
2023-04-18T02:22:57.010Z,28.48
2023-04-18T02:23:57.072Z,28.48
2023-04-18T02:24:57.114Z,28.48
2023-04-18T02:25:57.151Z,28.48
2023-04-18T02:26:57.193Z,28.47
2023-04-18T02:27:57.228Z,28.47
2023-04-18T02:28:57.287Z,28.46
2023-04-18T02:29:57.324Z,28.48
2023-04-18T02:30:57.382Z,28.47
2023-04-18T02:31:57.437Z,28.45
2023-04-18T02:32:57.523Z,28.46
2023-04-18T02:33:57.500Z,28.49
2023-04-18T02:34:57.541Z,28.45
2023-04-18T02:35:57.598Z,28.46
2023-04-18T02:36:57.650Z,28.48
2023-04-18T02:37:57.677Z,28.47
2023-04-18T02:38:57.730Z,28.47
2023-04-18T02:39:57.777Z,28.48
2023-04-18T02:40:57.843Z,28.46
2023-04-18T02:41:57.873Z,28.49
2023-04-18T02:42:57.925Z,28.48
2023-04-18T02:43:57.976Z,28.47
2023-04-18T02:44:58.014Z,28.48
2023-04-18T02:45:58.104Z,28.47
2023-04-18T02:46:58.133Z,28.47
2023-04-18T02:47:58.203Z,28.47
2023-04-18T02:48:58.252Z,28.47
2023-04-18T02:49:58.280Z,28.48
2023-04-18T02:50:58.346Z,28.48
2023-04-18T02:51:58.381Z,28.49
2023-04-18T02:52:58.447Z,28.49
2023-04-18T02:53:58.465Z,28.50
2023-04-18T02:54:58.484Z,28.50
2023-04-18T02:55:58.491Z,28.50
2023-04-18T02:56:58.496Z,28.47
2023-04-18T02:57:58.503Z,28.47
2023-04-18T02:58:58.507Z,28.44
2023-04-18T02:59:58.518Z,28.11
2023-04-18T03:00:58.572Z,27.76
2023-04-18T03:01:58.568Z,27.59
2023-04-18T03:02:58.589Z,27.50
2023-04-18T03:03:58.569Z,27.40
2023-04-18T03:04:58.625Z,27.37
2023-04-18T03:05:58.577Z,27.31
2023-04-18T03:06:58.580Z,27.18
2023-04-18T03:07:58.606Z,27.13
2023-04-18T03:08:58.611Z,27.05
2023-04-18T03:09:58.630Z,27.02
2023-04-18T03:10:58.658Z,27.01
2023-04-18T03:11:58.686Z,26.97
2023-04-18T03:12:58.695Z,26.91
2023-04-18T03:13:58.730Z,26.89
2023-04-18T03:14:58.761Z,26.78
2023-04-18T03:15:59.011Z,26.78
2023-04-18T03:16:58.858Z,26.76
2023-04-18T03:17:58.959Z,26.70
2023-04-18T03:18:58.947Z,26.68
2023-04-18T03:19:58.981Z,26.63
2023-04-18T03:20:59.031Z,26.57
2023-04-18T03:21:59.080Z,26.57
2023-04-18T03:22:59.126Z,26.57
2023-04-18T03:23:59.189Z,26.55
2023-04-18T03:24:59.232Z,26.53
2023-04-18T03:25:59.266Z,26.50
2023-04-18T03:26:59.304Z,26.48
2023-04-18T03:27:59.368Z,26.47
2023-04-18T03:28:59.406Z,26.43
2023-04-18T03:29:59.446Z,26.38
2023-04-18T03:30:59.538Z,26.39
2023-04-18T03:31:59.662Z,26.38
2023-04-18T03:32:59.636Z,26.35
2023-04-18T03:33:59.653Z,26.38
2023-04-18T03:34:59.701Z,26.35
2023-04-18T03:35:59.754Z,26.29
2023-04-18T03:36:59.776Z,26.32
2023-04-18T03:37:59.789Z,26.29
2023-04-18T03:38:59.809Z,26.29
2023-04-18T03:39:59.825Z,26.26
2023-04-18T03:40:59.871Z,26.24
2023-04-18T03:41:59.865Z,26.25
2023-04-18T03:42:59.899Z,26.30
2023-04-18T03:43:59.919Z,26.24
2023-04-18T03:44:59.917Z,26.22
2023-04-18T03:45:59.995Z,26.24
2023-04-18T03:46:59.953Z,26.20
2023-04-18T03:48:00.030Z,26.23
2023-04-18T03:48:59.988Z,26.18
2023-04-18T03:50:00.012Z,26.19
2023-04-18T03:51:00.040Z,26.17
2023-04-18T03:52:00.051Z,26.18
2023-04-18T03:53:00.070Z,26.15
2023-04-18T03:54:00.105Z,26.17
2023-04-18T03:55:00.169Z,26.15
2023-04-18T03:56:00.154Z,26.15
2023-04-18T03:57:00.165Z,26.14
2023-04-18T03:58:00.175Z,26.15
2023-04-18T03:59:00.202Z,26.12
2023-04-18T04:00:00.243Z,26.15
2023-04-18T04:01:00.325Z,26.14
2023-04-18T04:02:00.510Z,26.14
2023-04-18T04:03:00.570Z,26.11
2023-04-18T04:04:00.596Z,26.13
2023-04-18T04:05:00.632Z,26.13
2023-04-18T04:06:00.603Z,26.08
2023-04-18T04:07:00.625Z,26.12
2023-04-18T04:08:00.637Z,26.15
2023-04-18T04:09:00.664Z,26.14
2023-04-18T04:10:00.675Z,26.13
2023-04-18T04:11:00.693Z,26.11
2023-04-18T04:12:00.708Z,26.17
2023-04-18T04:13:00.729Z,26.11
2023-04-18T04:14:00.796Z,26.11
2023-04-18T04:15:00.855Z,26.13
2023-04-18T04:16:00.970Z,26.12
2023-04-18T04:17:00.997Z,26.14
2023-04-18T04:18:01.072Z,26.16
2023-04-18T04:19:01.132Z,26.11
2023-04-18T04:20:01.210Z,26.12
2023-04-18T04:21:01.288Z,26.11
2023-04-18T04:22:01.372Z,26.13
2023-04-18T04:23:01.428Z,26.14
2023-04-18T04:24:01.552Z,26.16
2023-04-18T04:25:01.591Z,26.14
2023-04-18T04:26:01.759Z,26.11
2023-04-18T04:27:01.760Z,26.16
2023-04-18T04:28:01.826Z,26.15
2023-04-18T04:29:01.900Z,26.16
2023-04-18T04:30:01.973Z,26.19
2023-04-18T04:31:02.085Z,26.17
2023-04-18T04:32:02.226Z,26.18
2023-04-18T04:33:02.251Z,26.19
2023-04-18T04:34:02.298Z,26.17
2023-04-18T04:35:02.390Z,26.17
2023-04-18T04:36:02.498Z,26.14
2023-04-18T04:37:02.567Z,26.14
2023-04-18T04:38:02.660Z,26.15
2023-04-18T04:39:02.746Z,26.17
2023-04-18T04:40:02.852Z,26.19
2023-04-18T04:41:02.906Z,26.22
2023-04-18T04:42:02.941Z,26.24
2023-04-18T04:43:02.959Z,26.23
2023-04-18T04:44:02.969Z,26.19
2023-04-18T04:45:03.032Z,26.19
2023-04-18T04:46:03.044Z,26.23
2023-04-18T04:47:03.033Z,26.23
2023-04-18T04:48:03.046Z,26.24
2023-04-18T04:49:03.040Z,26.25
2023-04-18T04:50:03.061Z,26.22
2023-04-18T04:51:03.080Z,26.24
2023-04-18T04:52:03.178Z,26.29
2023-04-18T04:53:03.171Z,26.25
2023-04-18T04:54:03.202Z,26.25
2023-04-18T04:55:03.245Z,26.25
2023-04-18T04:56:03.239Z,26.28
2023-04-18T04:57:03.272Z,26.28
2023-04-18T04:58:03.277Z,26.31
2023-04-18T04:59:03.287Z,26.26
2023-04-18T05:00:03.299Z,26.28
2023-04-18T05:01:03.325Z,26.26
2023-04-18T05:02:03.471Z,26.28
2023-04-18T05:03:03.490Z,26.26
2023-04-18T05:04:03.446Z,26.27
2023-04-18T05:05:03.362Z,26.24
2023-04-18T05:06:03.391Z,26.29
2023-04-18T05:07:03.420Z,26.28
2023-04-18T05:08:03.587Z,26.21
2023-04-18T05:09:03.484Z,26.21
2023-04-18T05:10:03.505Z,26.25
2023-04-18T05:11:03.552Z,26.23
2023-04-18T05:12:03.619Z,26.27
2023-04-18T05:13:03.660Z,26.28
2023-04-18T05:14:03.680Z,26.26
2023-04-18T05:15:03.709Z,26.28
2023-04-18T05:16:03.711Z,26.31
2023-04-18T05:17:03.796Z,26.35
2023-04-18T05:18:03.792Z,26.30
2023-04-18T05:19:03.783Z,26.31
2023-04-18T05:20:03.793Z,26.32
2023-04-18T05:21:03.796Z,26.33
2023-04-18T05:22:03.812Z,26.27
2023-04-18T05:23:03.838Z,26.29
2023-04-18T05:24:03.843Z,26.30
2023-04-18T05:25:03.854Z,26.29
2023-04-18T05:26:03.876Z,26.26
2023-04-18T05:27:03.887Z,26.24
2023-04-18T05:28:03.960Z,26.23
2023-04-18T05:29:03.940Z,26.26
2023-04-18T05:30:03.941Z,26.24
2023-04-18T05:31:04.039Z,26.23
2023-04-18T05:32:03.989Z,26.44
2023-04-18T05:33:04.086Z,27.28
2023-04-18T05:34:03.999Z,26.66
2023-04-18T05:35:04.009Z,27.71
2023-04-18T05:36:04.024Z,28.14
2023-04-18T05:37:04.051Z,28.43
2023-04-18T05:38:04.062Z,29.01
2023-04-18T05:39:04.106Z,29.20
2023-04-18T05:40:04.097Z,29.30
2023-04-18T05:41:04.082Z,29.42
2023-04-18T05:42:04.089Z,29.84
2023-04-18T05:43:04.105Z,29.84
2023-04-18T05:44:17.177Z,29.80
2023-04-18T05:45:05.159Z,30.20
2023-04-18T05:46:04.196Z,30.22
2023-04-18T05:47:04.366Z,30.32
2023-04-18T05:48:04.257Z,30.47
2023-04-18T05:49:04.170Z,31.38
2023-04-18T05:50:04.176Z,31.28
2023-04-18T05:51:04.196Z,32.25
2023-04-18T05:52:04.188Z,29.82
2023-04-18T05:53:04.196Z,26.39
2023-04-18T05:54:04.264Z,27.50
2023-04-18T05:55:04.290Z,28.54
2023-04-18T05:56:04.361Z,29.50
2023-04-18T05:57:04.946Z,29.51
2023-04-18T05:58:04.457Z,29.57
2023-04-18T05:59:04.541Z,29.57
2023-04-18T06:00:04.585Z,29.79
2023-04-18T06:01:04.634Z,30.07
2023-04-18T06:02:04.791Z,31.01
2023-04-18T06:03:04.956Z,32.50
2023-04-18T06:04:04.960Z,32.08
2023-04-18T06:05:05.168Z,32.03
2023-04-18T06:06:05.028Z,31.92
2023-04-18T06:07:05.132Z,31.69
2023-04-18T06:08:05.169Z,31.16
2023-04-18T06:09:05.237Z,30.80
2023-04-18T06:10:05.311Z,30.60
2023-04-18T06:11:05.364Z,30.64
2023-04-18T06:12:05.420Z,29.89
2023-04-18T06:13:05.447Z,29.24
2023-04-18T06:14:05.523Z,28.86
2023-04-18T06:15:05.501Z,28.70
2023-04-18T06:16:05.589Z,28.54
2023-04-18T06:17:05.564Z,28.50
2023-04-18T06:18:05.605Z,28.48
2023-04-18T06:19:05.605Z,28.52
2023-04-18T06:20:05.620Z,28.45
2023-04-18T06:21:05.636Z,28.90
2023-04-18T06:22:05.652Z,28.50
2023-04-18T06:23:05.688Z,28.47
2023-04-18T06:24:05.701Z,28.45
2023-04-18T06:25:05.732Z,28.45
2023-04-18T06:26:05.734Z,28.34
2023-04-18T06:27:05.772Z,28.33
2023-04-18T06:28:05.807Z,28.19
2023-04-18T06:29:05.807Z,28.22
2023-04-18T06:30:05.820Z,28.13
2023-04-18T06:31:05.889Z,28.32
2023-04-18T06:32:05.931Z,28.18
2023-04-18T06:33:05.926Z,28.03
2023-04-18T06:34:05.919Z,28.03
2023-04-18T06:35:05.932Z,28.11
2023-04-18T06:36:05.954Z,28.23
2023-04-18T06:37:05.979Z,28.24
2023-04-18T06:38:05.990Z,28.81
2023-04-18T06:39:06.006Z,28.85
2023-04-18T06:40:06.007Z,29.37
2023-04-18T06:41:06.047Z,29.45
2023-04-18T06:42:06.050Z,29.57
2023-04-18T06:43:06.062Z,29.98
2023-04-18T06:44:06.148Z,30.10
2023-04-18T06:45:06.094Z,28.66
2023-04-18T06:46:06.245Z,29.74
2023-04-18T06:47:06.136Z,28.74
2023-04-18T06:48:06.174Z,27.97
2023-04-18T06:49:06.164Z,27.56
2023-04-18T06:50:06.208Z,27.66
2023-04-18T06:51:06.179Z,28.02
2023-04-18T06:52:06.215Z,27.79
2023-04-18T06:53:06.217Z,27.58
2023-04-18T06:54:06.230Z,27.88
2023-04-18T06:55:06.224Z,27.61
2023-04-18T06:56:06.241Z,27.43
2023-04-18T06:57:06.252Z,27.62
2023-04-18T06:58:06.266Z,27.79
2023-04-18T06:59:06.312Z,28.06
2023-04-18T07:00:06.494Z,27.88
2023-04-18T07:01:06.333Z,28.47
2023-04-18T07:02:06.362Z,27.94
2023-04-18T07:03:08.017Z,27.92
2023-04-18T07:04:06.397Z,27.56
2023-04-18T07:05:06.364Z,27.67
2023-04-18T07:06:06.380Z,27.59
2023-04-18T07:07:06.398Z,27.96
2023-04-18T07:08:06.402Z,27.48
2023-04-18T07:09:06.430Z,27.59
2023-04-18T07:10:06.460Z,27.78
2023-04-18T07:11:06.464Z,27.47
2023-04-18T07:12:06.489Z,27.57
2023-04-18T07:13:06.484Z,27.49
2023-04-18T07:14:06.511Z,27.56
2023-04-18T07:15:06.543Z,27.40
2023-04-18T07:16:06.540Z,27.66
2023-04-18T07:17:06.684Z,27.61
2023-04-18T07:18:06.620Z,27.68
2023-04-18T07:19:06.568Z,27.43
2023-04-18T07:20:06.588Z,27.86
2023-04-18T07:21:06.600Z,26.99
2023-04-18T07:22:06.607Z,27.48
2023-04-18T07:23:06.675Z,27.41
2023-04-18T07:24:06.638Z,27.40
2023-04-18T07:25:06.646Z,26.84
2023-04-18T07:26:06.649Z,27.10
2023-04-18T07:27:06.670Z,27.10
2023-04-18T07:28:06.680Z,27.27
2023-04-18T07:29:06.687Z,26.95
2023-04-18T07:30:06.706Z,27.01
2023-04-18T07:31:06.776Z,27.06
2023-04-18T07:32:08.382Z,27.03
2023-04-18T07:33:06.764Z,27.20
2023-04-18T07:34:06.762Z,27.32
2023-04-18T07:35:06.822Z,27.40
2023-04-18T07:36:06.799Z,28.42
2023-04-18T07:37:06.807Z,28.69
2023-04-18T07:38:06.830Z,29.02
2023-04-18T07:39:06.850Z,29.40
2023-04-18T07:40:06.890Z,29.78
2023-04-18T07:41:06.907Z,30.05
2023-04-18T07:42:06.910Z,29.94
2023-04-18T07:43:06.925Z,29.90
2023-04-18T07:44:06.959Z,29.96
2023-04-18T07:45:06.942Z,30.08
2023-04-18T07:46:06.971Z,30.04
2023-04-18T07:47:06.987Z,30.07
2023-04-18T07:48:07.023Z,29.94
2023-04-18T07:49:06.994Z,29.91
2023-04-18T07:50:07.015Z,29.94
2023-04-18T07:51:07.032Z,29.95
2023-04-18T07:52:07.026Z,29.94
2023-04-18T07:53:07.030Z,29.96
2023-04-18T07:54:07.044Z,29.98
2023-04-18T07:55:07.070Z,29.97
2023-04-18T07:56:07.089Z,29.99
2023-04-18T07:57:07.112Z,30.03
2023-04-18T07:58:07.121Z,30.04
2023-04-18T07:59:07.186Z,30.06
2023-04-18T08:00:07.217Z,30.07
2023-04-18T08:01:07.286Z,30.08
2023-04-18T08:02:07.349Z,30.10
2023-04-18T08:03:07.564Z,30.08
2023-04-18T08:04:07.865Z,30.08
2023-04-18T08:05:07.651Z,30.12
2023-04-18T08:06:07.567Z,30.08
2023-04-18T08:07:07.660Z,30.09
2023-04-18T08:08:07.770Z,30.08
2023-04-18T08:09:07.838Z,30.04
2023-04-18T08:10:07.876Z,29.99
2023-04-18T08:11:07.939Z,30.00
2023-04-18T08:12:08.000Z,29.94
2023-04-18T08:13:08.099Z,29.85
2023-04-18T08:14:08.175Z,29.83
2023-04-18T08:15:08.217Z,29.73
2023-04-18T08:16:08.278Z,29.64
2023-04-18T08:17:08.333Z,29.55
2023-04-18T08:18:08.403Z,29.47
2023-04-18T08:19:08.443Z,29.39
2023-04-18T08:20:08.480Z,29.31
2023-04-18T08:21:08.519Z,29.21
2023-04-18T08:22:08.550Z,29.14
2023-04-18T08:23:11.170Z,29.09
2023-04-18T08:24:08.568Z,29.13
2023-04-18T08:25:08.597Z,29.12
2023-04-18T08:26:08.590Z,29.00
2023-04-18T08:27:08.591Z,29.03
2023-04-18T08:28:08.613Z,29.03
2023-04-18T08:29:08.620Z,29.58
2023-04-18T08:30:08.635Z,29.41
2023-04-18T08:31:08.696Z,29.12
2023-04-18T08:32:08.700Z,28.93
2023-04-18T08:33:08.691Z,28.84
2023-04-18T08:34:08.644Z,28.78
2023-04-18T08:35:08.662Z,28.67
2023-04-18T08:36:08.676Z,28.38
2023-04-18T08:37:08.674Z,28.22
2023-04-18T08:38:08.680Z,28.14
2023-04-18T08:39:08.686Z,28.01
2023-04-18T08:40:08.692Z,27.86
2023-04-18T08:41:08.705Z,27.73
2023-04-18T08:42:08.701Z,27.60
2023-04-18T08:43:08.704Z,27.48
2023-04-18T08:44:08.710Z,27.32
2023-04-18T08:45:08.722Z,27.23
2023-04-18T08:46:08.773Z,27.24
2023-04-18T08:47:08.733Z,27.29
2023-04-18T08:48:08.846Z,27.09
2023-04-18T08:49:10.719Z,27.00
2023-04-18T08:50:08.870Z,27.52
2023-04-18T08:51:08.875Z,27.96
2023-04-18T08:52:08.881Z,27.93
2023-04-18T08:53:08.865Z,27.86
2023-04-18T08:54:08.881Z,27.73
2023-04-18T08:55:08.887Z,27.71
2023-04-18T08:56:08.873Z,27.68
2023-04-18T08:57:08.870Z,27.61
2023-04-18T08:58:08.861Z,27.50
2023-04-18T08:59:08.873Z,27.60
2023-04-18T09:00:08.886Z,27.62
2023-04-18T09:01:08.943Z,27.59
2023-04-18T09:02:09.109Z,27.69
2023-04-18T09:03:09.116Z,27.67
2023-04-18T09:04:09.143Z,27.65
2023-04-18T09:05:09.142Z,27.64
2023-04-18T09:06:09.217Z,27.68
2023-04-18T09:07:09.269Z,27.64
2023-04-18T09:08:09.354Z,27.71
2023-04-18T09:09:09.405Z,27.72
2023-04-18T09:10:09.440Z,27.68
2023-04-18T09:11:09.489Z,27.67
2023-04-18T09:12:09.540Z,27.59
2023-04-18T09:13:09.596Z,27.69
2023-04-18T09:14:09.676Z,27.63
2023-04-18T09:15:09.705Z,27.60
2023-04-18T09:16:09.781Z,27.57
2023-04-18T09:17:09.775Z,27.44
2023-04-18T09:18:09.853Z,27.47
2023-04-18T09:19:09.854Z,27.49
2023-04-18T09:20:09.897Z,27.40
2023-04-18T09:21:09.905Z,27.37
2023-04-18T09:22:09.947Z,27.52
2023-04-18T09:23:09.981Z,27.60
2023-04-18T09:24:10.032Z,27.57
2023-04-18T09:25:10.036Z,27.66
2023-04-18T09:26:10.031Z,27.49
2023-04-18T09:27:10.047Z,27.57
2023-04-18T09:28:10.035Z,27.55
2023-04-18T09:29:10.037Z,27.52
2023-04-18T09:30:10.043Z,27.48
2023-04-18T09:31:10.103Z,27.52
2023-04-18T09:32:10.047Z,27.56
2023-04-18T09:33:10.089Z,27.54
2023-04-18T09:34:10.153Z,27.61
2023-04-18T09:35:10.231Z,27.59
2023-04-18T09:36:10.289Z,27.55
2023-04-18T09:37:10.413Z,27.57
2023-04-18T09:38:10.426Z,27.58
2023-04-18T09:39:10.469Z,27.62
2023-04-18T09:40:10.590Z,27.59
2023-04-18T09:41:10.598Z,27.63
2023-04-18T09:42:10.696Z,27.67
2023-04-18T09:43:10.746Z,27.85
2023-04-18T09:44:13.974Z,28.05
2023-04-18T09:45:10.680Z,28.61
2023-04-18T09:46:10.713Z,28.93
2023-04-18T09:47:10.684Z,29.24
2023-04-18T09:48:10.773Z,29.32
2023-04-18T09:49:11.267Z,29.30
2023-04-18T09:50:10.689Z,29.53
2023-04-18T09:51:10.703Z,29.57
2023-04-18T09:52:10.707Z,29.68
2023-04-18T09:53:10.694Z,29.80
2023-04-18T09:54:10.758Z,29.93
2023-04-18T09:55:10.695Z,29.96
2023-04-18T09:56:10.750Z,30.04
2023-04-18T09:57:10.718Z,30.14
2023-04-18T09:58:10.715Z,30.16
2023-04-18T09:59:10.718Z,30.19
2023-04-18T10:00:10.782Z,30.24
2023-04-18T10:01:10.735Z,30.51
2023-04-18T10:02:10.746Z,30.48
2023-04-18T10:03:10.849Z,30.54
2023-04-18T10:04:10.750Z,30.60
2023-04-18T10:05:10.896Z,30.61
2023-04-18T10:06:10.749Z,30.54
2023-04-18T10:07:10.720Z,30.34
2023-04-18T10:08:10.733Z,30.34
2023-04-18T10:10:29.584Z,30.09
2023-04-18T10:11:29.673Z,29.91
2023-04-18T10:12:29.551Z,29.90
2023-04-18T10:13:29.561Z,29.82
2023-04-18T10:14:29.562Z,29.69
2023-04-18T10:15:29.567Z,29.59
2023-04-18T10:16:29.610Z,29.51
2023-04-18T10:17:29.848Z,29.35
2023-04-18T10:18:29.586Z,29.31
2023-04-18T10:19:29.580Z,29.33
2023-04-18T10:20:29.525Z,29.23
2023-04-18T10:21:29.548Z,29.13
2023-04-18T10:22:29.503Z,29.02
2023-04-18T10:23:29.487Z,28.70
2023-04-18T10:24:29.472Z,28.79
2023-04-18T10:25:29.475Z,28.62
2023-04-18T10:26:29.527Z,28.65
2023-04-18T10:27:29.623Z,28.60
2023-04-18T10:28:29.471Z,28.37
2023-04-18T10:29:29.429Z,28.46
2023-04-18T10:30:29.424Z,28.51
2023-04-18T10:31:29.446Z,28.53
2023-04-18T10:32:29.455Z,28.49
2023-04-18T10:33:31.863Z,28.49
2023-04-18T10:34:29.390Z,28.65
2023-04-18T10:35:29.392Z,28.48
2023-04-18T10:36:29.397Z,28.55
2023-04-18T10:37:29.371Z,28.25
2023-04-18T10:38:29.441Z,28.12
2023-04-18T10:39:29.377Z,27.79
2023-04-18T10:40:29.342Z,28.00
2023-04-18T10:41:29.346Z,28.56
2023-04-18T10:42:29.330Z,28.59
2023-04-18T10:43:29.321Z,28.57
2023-04-18T10:44:29.322Z,28.56
2023-04-18T10:45:29.331Z,28.52
2023-04-18T10:46:32.467Z,28.48
2023-04-18T10:47:29.405Z,28.36
2023-04-18T10:48:29.296Z,27.98
2023-04-18T10:49:32.115Z,28.03
2023-04-18T10:50:29.276Z,27.68
2023-04-18T10:51:29.282Z,27.50
2023-04-18T10:52:29.268Z,27.87
2023-04-18T10:53:29.234Z,27.88
2023-04-18T10:54:29.244Z,27.80
2023-04-18T10:55:29.229Z,27.90
2023-04-18T10:56:29.286Z,27.88
2023-04-18T10:57:29.259Z,27.87
2023-04-18T10:58:29.223Z,27.82
2023-04-18T10:59:29.498Z,27.93
2023-04-18T11:00:29.202Z,28.01
2023-04-18T11:01:32.118Z,27.96
2023-04-18T11:02:29.255Z,27.99
2023-04-18T11:03:29.188Z,27.90
2023-04-18T11:04:29.261Z,27.89
2023-04-18T11:05:29.118Z,27.95
2023-04-18T11:06:29.129Z,27.89
2023-04-18T11:07:30.058Z,27.90
2023-04-18T11:08:29.086Z,27.93
2023-04-18T11:09:29.079Z,27.94
2023-04-18T11:10:29.073Z,27.94
2023-04-18T11:11:29.064Z,27.98
2023-04-18T11:12:29.064Z,27.87
2023-04-18T11:13:29.042Z,27.95
2023-04-18T11:14:29.057Z,28.07
2023-04-18T11:15:30.873Z,28.23
2023-04-18T11:16:29.080Z,27.79
2023-04-18T11:17:29.041Z,27.45
2023-04-18T11:18:28.976Z,27.71
2023-04-18T11:19:28.972Z,27.35
2023-04-18T11:20:28.948Z,27.15
2023-04-18T11:21:30.676Z,26.77
2023-04-18T11:22:29.021Z,25.60
2023-04-18T11:23:28.912Z,28.10
2023-04-18T11:24:28.896Z,27.17
2023-04-18T11:25:28.868Z,26.89
2023-04-18T11:26:28.866Z,27.54
2023-04-18T11:27:28.843Z,27.99
2023-04-18T11:28:28.821Z,27.60
2023-04-18T11:29:28.796Z,27.32
2023-04-18T11:30:28.823Z,27.16
2023-04-18T11:31:29.014Z,27.21
2023-04-18T11:32:28.843Z,27.23
2023-04-18T11:33:28.756Z,27.12
2023-04-18T11:34:28.743Z,27.13
2023-04-18T11:35:28.800Z,27.11
2023-04-18T11:36:28.772Z,27.10
2023-04-18T11:37:28.777Z,27.09
2023-04-18T11:38:28.762Z,27.03
2023-04-18T11:39:28.766Z,26.93
2023-04-18T11:40:28.745Z,26.89
2023-04-18T11:41:28.761Z,26.78
2023-04-18T11:42:28.629Z,26.59
2023-04-18T11:43:28.624Z,26.47
2023-04-18T11:44:28.598Z,26.45
2023-04-18T11:45:28.592Z,26.49
2023-04-18T11:46:28.618Z,26.53
2023-04-18T11:47:28.589Z,26.36
2023-04-18T11:48:28.547Z,25.95
2023-04-18T11:49:28.538Z,25.89
2023-04-18T11:50:28.516Z,26.43
2023-04-18T11:51:28.515Z,26.12
2023-04-18T11:52:28.509Z,26.15
2023-04-18T11:53:28.490Z,26.03
2023-04-18T11:54:28.475Z,26.10
2023-04-18T11:55:28.469Z,26.36
2023-04-18T11:56:28.445Z,26.25
2023-04-18T11:57:28.428Z,26.25
2023-04-18T11:58:28.406Z,25.90
2023-04-18T11:59:28.389Z,25.90
2023-04-18T12:00:28.391Z,26.02
2023-04-18T12:01:28.355Z,25.89
2023-04-18T12:02:28.501Z,25.85
2023-04-18T12:03:28.484Z,25.82
2023-04-18T12:04:28.423Z,25.78
2023-04-18T12:05:28.396Z,25.67
2023-04-18T12:06:28.373Z,25.67
2023-04-18T12:07:28.301Z,25.49
2023-04-18T12:08:28.271Z,25.50
2023-04-18T12:09:28.259Z,25.50
2023-04-18T12:10:28.271Z,25.56
2023-04-18T12:11:28.279Z,25.40
2023-04-18T12:12:28.347Z,25.40
2023-04-18T12:13:28.384Z,25.36
2023-04-18T12:14:28.442Z,25.44
2023-04-18T12:15:28.519Z,25.36
2023-04-18T12:16:28.632Z,25.29
2023-04-18T12:17:28.617Z,25.33
2023-04-18T12:18:28.663Z,25.33
2023-04-18T12:19:28.645Z,25.29
2023-04-18T12:20:28.631Z,25.21
2023-04-18T12:21:28.624Z,25.33
2023-04-18T12:22:28.610Z,25.22
2023-04-18T12:23:28.579Z,25.26
2023-04-18T12:24:28.608Z,25.32
2023-04-18T12:25:28.570Z,25.39
2023-04-18T12:26:28.567Z,25.47
2023-04-18T12:27:28.538Z,25.47
2023-04-18T12:28:28.545Z,25.48
2023-04-18T12:29:28.512Z,25.48
2023-04-18T12:30:28.514Z,25.44
2023-04-18T12:31:28.547Z,25.42
2023-04-18T12:32:28.555Z,25.38
2023-04-18T12:33:28.481Z,25.33
2023-04-18T12:34:28.468Z,25.32
2023-04-18T12:35:28.483Z,25.31
2023-04-18T12:36:28.503Z,25.29
2023-04-18T12:37:28.554Z,25.29
2023-04-18T12:38:28.599Z,25.24
2023-04-18T12:39:28.659Z,25.21
2023-04-18T12:40:28.684Z,25.21
2023-04-18T12:41:28.732Z,25.20
2023-04-18T12:42:28.770Z,25.19
2023-04-18T12:43:28.829Z,25.18
2023-04-18T12:44:28.882Z,25.18
2023-04-18T12:45:28.939Z,25.18
2023-04-18T12:46:29.065Z,25.18
2023-04-18T12:47:29.021Z,25.17
2023-04-18T12:48:28.963Z,25.19
2023-04-18T12:49:28.957Z,25.16
2023-04-18T12:50:28.938Z,25.15
2023-04-18T12:51:29.017Z,25.14
2023-04-18T12:52:28.916Z,25.14
2023-04-18T12:53:28.907Z,25.15
2023-04-18T12:54:28.889Z,25.15